createdAt,value
2023-04-30T00:00:17.163Z,8.23
2023-04-30T00:00:48.732Z,8.23
2023-04-30T00:01:20.494Z,8.23
2023-04-30T00:01:51.926Z,8.23
2023-04-30T00:02:23.605Z,8.24
2023-04-30T00:02:55.513Z,8.24
2023-04-30T00:03:27.188Z,8.24
2023-04-30T00:03:58.680Z,8.24
2023-04-30T00:04:30.148Z,8.23
2023-04-30T00:05:01.711Z,8.22
2023-04-30T00:05:33.324Z,8.23
2023-04-30T00:06:04.731Z,8.23
2023-04-30T00:06:36.137Z,8.22
2023-04-30T00:07:08.519Z,8.22
2023-04-30T00:07:42.343Z,8.21
2023-04-30T00:08:13.859Z,8.21
2023-04-30T00:08:45.646Z,8.20
2023-04-30T00:09:17.567Z,8.20
2023-04-30T00:09:50.241Z,8.19
2023-04-30T00:10:21.690Z,8.18
2023-04-30T00:10:53.099Z,8.19
2023-04-30T00:11:25.922Z,8.18
2023-04-30T00:11:57.381Z,8.16
2023-04-30T00:12:28.844Z,8.16
2023-04-30T00:13:00.293Z,8.14
2023-04-30T00:13:31.670Z,8.13
2023-04-30T00:14:03.397Z,8.12
2023-04-30T00:14:35.011Z,8.12
2023-04-30T00:15:07.047Z,8.11
2023-04-30T00:15:38.522Z,8.10
2023-04-30T00:16:10.827Z,8.08
2023-04-30T00:16:42.413Z,8.08
2023-04-30T00:17:13.927Z,8.07
2023-04-30T00:17:46.033Z,8.05
2023-04-30T00:18:17.452Z,8.03
2023-04-30T00:18:48.894Z,8.03
2023-04-30T00:19:20.574Z,8.02
2023-04-30T00:19:52.750Z,8.03
2023-04-30T00:20:24.479Z,8.01
2023-04-30T00:20:55.954Z,8.00
2023-04-30T00:21:27.761Z,7.99
2023-04-30T00:22:01.425Z,7.98
2023-04-30T00:22:33.641Z,7.97
2023-04-30T00:23:05.115Z,7.96
2023-04-30T00:23:36.563Z,7.95
2023-04-30T00:24:07.987Z,7.96
2023-04-30T00:24:39.671Z,7.94
2023-04-30T00:25:11.330Z,7.94
2023-04-30T00:25:42.953Z,7.93
2023-04-30T00:26:14.565Z,7.94
2023-04-30T00:26:46.003Z,7.93
2023-04-30T00:27:17.401Z,7.92
2023-04-30T00:27:49.100Z,7.91
2023-04-30T00:28:20.585Z,7.92
2023-04-30T00:28:52.076Z,7.90
2023-04-30T00:29:23.510Z,7.89
2023-04-30T00:29:55.558Z,7.89
2023-04-30T00:30:27.183Z,7.88
2023-04-30T00:30:58.739Z,7.88
2023-04-30T00:31:30.325Z,7.87
2023-04-30T00:32:01.912Z,7.86
2023-04-30T00:32:33.419Z,7.86
2023-04-30T00:33:05.609Z,7.86
2023-04-30T00:33:37.049Z,7.86
2023-04-30T00:34:08.523Z,7.85
2023-04-30T00:34:39.979Z,7.85
2023-04-30T00:35:11.762Z,7.83
2023-04-30T00:35:43.296Z,7.84
2023-04-30T00:36:14.654Z,7.84
2023-04-30T00:36:46.065Z,7.83
2023-04-30T00:37:17.633Z,7.82
2023-04-30T00:37:49.089Z,7.82
2023-04-30T00:38:20.466Z,7.81
2023-04-30T00:38:51.835Z,7.80
2023-04-30T00:39:23.319Z,7.79
2023-04-30T00:39:54.851Z,7.78
2023-04-30T00:40:26.974Z,7.77
2023-04-30T00:40:58.812Z,7.76
2023-04-30T00:41:30.943Z,7.75
2023-04-30T00:42:02.892Z,7.75
2023-04-30T00:42:34.300Z,7.74
2023-04-30T00:43:06.113Z,7.74
2023-04-30T00:43:37.507Z,7.73
2023-04-30T00:44:08.993Z,7.73
2023-04-30T00:44:40.611Z,7.72
2023-04-30T00:45:12.050Z,7.70
2023-04-30T00:45:43.532Z,7.68
2023-04-30T00:46:15.001Z,7.66
2023-04-30T00:46:46.438Z,7.66
2023-04-30T00:47:17.963Z,7.65
2023-04-30T00:47:49.857Z,7.63
2023-04-30T00:48:21.736Z,7.65
2023-04-30T00:48:53.332Z,7.65
2023-04-30T00:49:25.278Z,7.61
2023-04-30T00:49:56.956Z,7.63
2023-04-30T00:50:29.350Z,7.61
2023-04-30T00:51:04.171Z,7.59
2023-04-30T00:51:36.595Z,7.58
2023-04-30T00:52:08.118Z,7.56
2023-04-30T00:52:39.841Z,7.56
2023-04-30T00:53:12.613Z,7.55
2023-04-30T00:53:44.403Z,7.54
2023-04-30T00:54:16.548Z,7.52
2023-04-30T00:54:48.285Z,7.50
2023-04-30T00:55:20.091Z,7.50
2023-04-30T00:55:51.832Z,7.47
2023-04-30T00:56:23.322Z,7.46
2023-04-30T00:56:55.035Z,7.44
2023-04-30T00:57:26.752Z,7.45
2023-04-30T00:57:59.391Z,7.43
2023-04-30T00:58:30.900Z,7.43
2023-04-30T00:59:02.275Z,7.40
2023-04-30T00:59:33.923Z,7.38
2023-04-30T01:00:06.324Z,7.38
2023-04-30T01:00:38.045Z,7.36
2023-04-30T01:01:09.817Z,7.36
2023-04-30T01:01:42.188Z,7.35
2023-04-30T01:02:13.702Z,7.32
2023-04-30T01:02:45.302Z,7.32
2023-04-30T01:03:16.858Z,7.31
2023-04-30T01:03:48.841Z,7.31
2023-04-30T01:04:20.642Z,7.31
2023-04-30T01:04:52.282Z,7.33
2023-04-30T01:05:23.750Z,7.33
2023-04-30T01:05:55.219Z,7.33
2023-04-30T01:06:27.252Z,7.34
2023-04-30T01:07:02.054Z,7.35
2023-04-30T01:07:35.234Z,7.35
2023-04-30T01:08:07.277Z,7.36
2023-04-30T01:08:38.793Z,7.36
2023-04-30T01:09:10.498Z,7.36
2023-04-30T01:09:42.157Z,7.37
2023-04-30T01:10:14.505Z,7.38
2023-04-30T01:10:52.275Z,7.38
2023-04-30T01:11:47.238Z,7.38
2023-04-30T01:12:26.187Z,7.37
2023-04-30T01:13:15.027Z,7.38
2023-04-30T01:14:08.289Z,7.35
2023-04-30T01:14:53.657Z,7.34
2023-04-30T01:15:36.194Z,7.32
2023-04-30T01:16:18.424Z,7.30
2023-04-30T01:17:21.704Z,7.28
2023-04-30T01:18:12.784Z,7.26
2023-04-30T01:18:51.864Z,7.23
2023-04-30T01:19:38.210Z,7.21
2023-04-30T01:20:11.483Z,7.19
2023-04-30T01:21:01.810Z,7.17
2023-04-30T01:21:34.391Z,7.16
2023-04-30T01:22:21.235Z,7.13
2023-04-30T01:23:02.868Z,7.11
2023-04-30T01:24:00.507Z,7.09
2023-04-30T01:24:49.346Z,7.07
2023-04-30T01:25:52.355Z,7.06
2023-04-30T01:26:46.559Z,7.06
2023-04-30T01:27:42.814Z,7.05
2023-04-30T01:28:16.852Z,7.06
2023-04-30T01:28:51.799Z,7.06
2023-04-30T01:29:24.984Z,7.05
2023-04-30T01:29:56.837Z,7.04
2023-04-30T01:30:30.030Z,7.04
2023-04-30T01:31:01.455Z,7.02
2023-04-30T01:31:32.893Z,7.01
2023-04-30T01:32:04.382Z,7.01
2023-04-30T01:32:35.996Z,7.00
2023-04-30T01:33:07.589Z,6.99
2023-04-30T01:33:39.089Z,6.98
2023-04-30T01:34:10.835Z,6.98
2023-04-30T01:34:42.647Z,6.98
2023-04-30T01:35:14.114Z,6.97
2023-04-30T01:36:00.511Z,6.97
2023-04-30T01:36:57.457Z,6.96
2023-04-30T01:37:52.300Z,6.96
2023-04-30T01:39:00.053Z,6.94
2023-04-30T01:39:59.206Z,6.92
2023-04-30T01:40:59.695Z,6.90
2023-04-30T01:41:34.731Z,6.88
2023-04-30T01:42:22.469Z,6.86
2023-04-30T01:43:17.984Z,6.83
2023-04-30T01:44:17.152Z,6.81
2023-04-30T01:44:58.676Z,6.78
2023-04-30T01:45:32.931Z,6.76
2023-04-30T01:46:31.810Z,6.74
2023-04-30T01:47:11.101Z,6.70
2023-04-30T01:47:53.031Z,6.68
2023-04-30T01:48:46.679Z,6.66
2023-04-30T01:50:02.401Z,6.65
2023-04-30T01:50:59.719Z,6.63
2023-04-30T01:51:40.086Z,6.63
2023-04-30T01:52:31.638Z,6.63
2023-04-30T01:53:07.385Z,6.63
2023-04-30T01:53:42.396Z,6.62
2023-04-30T01:54:29.465Z,6.63
2023-04-30T01:55:08.626Z,6.62
2023-04-30T01:55:55.731Z,6.62
2023-04-30T01:56:41.490Z,6.63
2023-04-30T01:57:28.004Z,6.63
2023-04-30T01:58:09.432Z,6.64
2023-04-30T01:58:40.995Z,6.64
2023-04-30T01:59:15.717Z,6.64
2023-04-30T01:59:47.540Z,6.64
2023-04-30T02:00:19.369Z,6.64
2023-04-30T02:00:50.956Z,6.65
2023-04-30T02:01:31.289Z,6.66
2023-04-30T02:02:04.253Z,6.68
2023-04-30T02:02:35.736Z,6.69
2023-04-30T02:03:07.601Z,6.69
2023-04-30T02:03:39.242Z,6.70
2023-04-30T02:04:11.045Z,6.71
2023-04-30T02:04:42.572Z,6.70
2023-04-30T02:05:14.208Z,6.72
2023-04-30T02:05:45.686Z,6.73
2023-04-30T02:06:17.091Z,6.73
2023-04-30T02:06:48.612Z,6.73
2023-04-30T02:07:35.316Z,6.74
2023-04-30T02:08:06.946Z,6.74
2023-04-30T02:08:38.476Z,6.74
2023-04-30T02:09:10.665Z,6.74
2023-04-30T02:09:42.076Z,6.74
2023-04-30T02:10:13.738Z,6.75
2023-04-30T02:10:45.163Z,6.74
2023-04-30T02:11:16.590Z,6.74
2023-04-30T02:11:48.073Z,6.73
2023-04-30T02:12:19.492Z,6.73
2023-04-30T02:12:54.242Z,6.72
2023-04-30T02:13:25.619Z,6.72
2023-04-30T02:13:57.094Z,6.72
2023-04-30T02:14:28.705Z,6.72
2023-04-30T02:15:00.165Z,6.72
2023-04-30T02:15:31.635Z,6.72
2023-04-30T02:16:04.216Z,6.72
2023-04-30T02:16:35.740Z,6.71
2023-04-30T02:17:07.171Z,6.71
2023-04-30T02:17:38.630Z,6.69
2023-04-30T02:18:10.162Z,6.69
2023-04-30T02:18:41.754Z,6.68
2023-04-30T02:19:13.125Z,6.69
2023-04-30T02:19:44.466Z,6.68
2023-04-30T02:20:15.870Z,6.68
2023-04-30T02:20:47.246Z,6.69
2023-04-30T02:21:18.709Z,6.69
2023-04-30T02:21:50.098Z,6.69
2023-04-30T02:22:21.479Z,6.68
2023-04-30T02:22:53.228Z,6.67
2023-04-30T02:23:24.675Z,6.67
2023-04-30T02:23:56.119Z,6.66
2023-04-30T02:24:27.751Z,6.66
2023-04-30T02:24:59.163Z,6.66
2023-04-30T02:25:30.774Z,6.66
2023-04-30T02:26:03.128Z,6.66
2023-04-30T02:26:34.915Z,6.65
2023-04-30T02:27:06.680Z,6.64
2023-04-30T02:27:38.545Z,6.63
2023-04-30T02:28:09.982Z,6.62
2023-04-30T02:28:42.561Z,6.62
2023-04-30T02:29:13.933Z,6.61
2023-04-30T02:29:45.417Z,6.60
2023-04-30T02:30:17.131Z,6.60
2023-04-30T02:30:48.980Z,6.59
2023-04-30T02:31:20.541Z,6.58
2023-04-30T02:31:51.980Z,6.58
2023-04-30T02:32:26.534Z,6.58
2023-04-30T02:32:57.979Z,6.57
2023-04-30T02:33:29.588Z,6.56
2023-04-30T02:34:00.993Z,6.56
2023-04-30T02:34:32.437Z,6.55
2023-04-30T02:35:04.064Z,6.54
2023-04-30T02:35:35.470Z,6.54
2023-04-30T02:36:06.920Z,6.55
2023-04-30T02:36:38.522Z,6.54
2023-04-30T02:37:10.430Z,6.53
2023-04-30T02:37:41.790Z,6.51
2023-04-30T02:38:13.309Z,6.50
2023-04-30T02:38:44.723Z,6.50
2023-04-30T02:39:16.176Z,6.49
2023-04-30T02:39:47.746Z,6.48
2023-04-30T02:40:19.170Z,6.47
2023-04-30T02:40:50.651Z,6.47
2023-04-30T02:41:22.292Z,6.47
2023-04-30T02:41:53.655Z,6.46
2023-04-30T02:42:25.145Z,6.46
2023-04-30T02:42:56.827Z,6.46
2023-04-30T02:43:28.286Z,6.47
2023-04-30T02:43:59.919Z,6.47
2023-04-30T02:44:31.395Z,6.48
2023-04-30T02:45:02.995Z,6.47
2023-04-30T02:45:34.538Z,6.48
2023-04-30T02:46:06.530Z,6.49
2023-04-30T02:46:38.048Z,6.49
2023-04-30T02:47:09.552Z,6.49
2023-04-30T02:47:41.081Z,6.49
2023-04-30T02:48:13.606Z,6.50
2023-04-30T02:48:45.232Z,6.48
2023-04-30T02:49:17.141Z,6.47
2023-04-30T02:49:48.790Z,6.47
2023-04-30T02:50:20.197Z,6.46
2023-04-30T02:50:51.547Z,6.46
2023-04-30T02:51:22.992Z,6.45
2023-04-30T02:51:54.922Z,6.44
2023-04-30T02:52:26.691Z,6.42
2023-04-30T02:52:58.219Z,6.42
2023-04-30T02:53:29.725Z,6.40
2023-04-30T02:54:01.156Z,6.40
2023-04-30T02:54:32.535Z,6.38
2023-04-30T02:55:04.340Z,6.37
2023-04-30T02:55:35.829Z,6.36
2023-04-30T02:56:08.043Z,6.34
2023-04-30T02:56:39.635Z,6.33
2023-04-30T02:57:11.264Z,6.32
2023-04-30T02:57:42.656Z,6.31
2023-04-30T02:58:14.179Z,6.30
2023-04-30T02:58:45.767Z,6.30
2023-04-30T02:59:17.161Z,6.28
2023-04-30T02:59:48.659Z,6.29
2023-04-30T03:00:20.320Z,6.28
2023-04-30T03:00:51.762Z,6.28
2023-04-30T03:01:23.276Z,6.25
2023-04-30T03:01:54.786Z,6.26
2023-04-30T03:02:26.240Z,6.24
2023-04-30T03:02:57.774Z,6.23
2023-04-30T03:03:29.288Z,6.24
2023-04-30T03:04:00.812Z,6.23
2023-04-30T03:04:32.417Z,6.22
2023-04-30T03:05:04.198Z,6.22
2023-04-30T03:05:35.640Z,6.21
2023-04-30T03:06:07.191Z,6.21
2023-04-30T03:06:38.993Z,6.21
2023-04-30T03:07:10.590Z,6.20
2023-04-30T03:07:42.615Z,6.19
2023-04-30T03:08:13.998Z,6.19
2023-04-30T03:08:45.353Z,6.19
2023-04-30T03:09:17.418Z,6.18
2023-04-30T03:09:48.830Z,6.18
2023-04-30T03:10:20.318Z,6.19
2023-04-30T03:10:52.293Z,6.19
2023-04-30T03:11:23.721Z,6.20
2023-04-30T03:11:55.481Z,6.21
2023-04-30T03:12:26.952Z,6.21
2023-04-30T03:12:58.449Z,6.22
2023-04-30T03:13:29.903Z,6.22
2023-04-30T03:14:01.405Z,6.22
2023-04-30T03:14:32.898Z,6.22
2023-04-30T03:15:04.852Z,6.22
2023-04-30T03:15:36.305Z,6.22
2023-04-30T03:16:07.686Z,6.22
2023-04-30T03:16:39.164Z,6.23
2023-04-30T03:17:10.731Z,6.22
2023-04-30T03:17:44.527Z,6.23
2023-04-30T03:18:17.291Z,6.21
2023-04-30T03:18:49.472Z,6.21
2023-04-30T03:19:25.332Z,6.19
2023-04-30T03:19:56.945Z,6.20
2023-04-30T03:20:28.616Z,6.18
2023-04-30T03:20:59.962Z,6.17
2023-04-30T03:21:31.537Z,6.18
2023-04-30T03:22:03.269Z,6.17
2023-04-30T03:22:34.612Z,6.15
2023-04-30T03:23:05.994Z,6.15
2023-04-30T03:23:37.681Z,6.15
2023-04-30T03:24:09.152Z,6.14
2023-04-30T03:24:40.604Z,6.14
2023-04-30T03:25:12.149Z,6.12
2023-04-30T03:25:43.689Z,6.12
2023-04-30T03:26:15.162Z,6.11
2023-04-30T03:26:47.272Z,6.09
2023-04-30T03:27:18.692Z,6.08
2023-04-30T03:27:50.087Z,6.07
2023-04-30T03:28:21.662Z,6.06
2023-04-30T03:28:55.137Z,6.06
2023-04-30T03:29:26.753Z,6.05
2023-04-30T03:29:58.161Z,6.04
2023-04-30T03:30:29.990Z,6.03
2023-04-30T03:31:05.184Z,6.03
2023-04-30T03:31:36.877Z,6.03
2023-04-30T03:32:08.502Z,6.03
2023-04-30T03:32:39.915Z,6.01
2023-04-30T03:33:11.698Z,6.01
2023-04-30T03:33:43.199Z,5.99
2023-04-30T03:34:14.835Z,5.99
2023-04-30T03:34:46.633Z,5.99
2023-04-30T03:35:19.074Z,5.98
2023-04-30T03:35:51.787Z,5.97
2023-04-30T03:36:23.193Z,5.97
2023-04-30T03:36:54.626Z,5.98
2023-04-30T03:37:26.154Z,5.97
2023-04-30T03:37:57.840Z,5.98
2023-04-30T03:38:29.286Z,5.98
2023-04-30T03:39:01.562Z,5.99
2023-04-30T03:39:32.997Z,5.99
2023-04-30T03:40:04.934Z,5.99
2023-04-30T03:40:36.455Z,6.00
2023-04-30T03:41:07.861Z,6.00
2023-04-30T03:41:39.224Z,6.00
2023-04-30T03:42:10.660Z,6.00
2023-04-30T03:42:42.093Z,6.00
2023-04-30T03:43:13.595Z,6.00
2023-04-30T03:43:45.112Z,6.01
2023-04-30T03:44:16.515Z,6.01
2023-04-30T03:44:48.008Z,6.01
2023-04-30T03:45:19.605Z,6.01
2023-04-30T03:45:51.164Z,6.01
2023-04-30T03:46:22.828Z,6.00
2023-04-30T03:46:54.298Z,6.00
2023-04-30T03:47:25.921Z,6.00
2023-04-30T03:47:57.749Z,5.98
2023-04-30T03:48:29.485Z,5.99
2023-04-30T03:49:00.855Z,5.98
2023-04-30T03:49:32.254Z,5.98
2023-04-30T03:50:04.169Z,5.96
2023-04-30T03:50:35.602Z,5.96
2023-04-30T03:51:06.999Z,5.95
2023-04-30T03:51:42.050Z,5.95
2023-04-30T03:52:13.678Z,5.96
2023-04-30T03:52:46.052Z,5.95
2023-04-30T03:53:17.462Z,5.95
2023-04-30T03:53:48.881Z,5.93
2023-04-30T03:54:20.683Z,5.92
2023-04-30T03:54:52.150Z,5.93
2023-04-30T03:55:23.661Z,5.91
2023-04-30T03:55:55.833Z,5.89
2023-04-30T03:56:27.502Z,5.88
2023-04-30T03:56:59.105Z,5.87
2023-04-30T03:57:30.850Z,5.87
2023-04-30T03:58:02.396Z,5.87
2023-04-30T03:58:33.774Z,5.86
2023-04-30T03:59:06.158Z,5.85
2023-04-30T03:59:37.935Z,5.85
2023-04-30T04:00:13.548Z,5.84
2023-04-30T04:00:45.781Z,5.83
2023-04-30T04:01:17.284Z,5.82
2023-04-30T04:01:48.824Z,5.82
2023-04-30T04:02:52.945Z,5.82
2023-04-30T04:03:24.518Z,5.80
2023-04-30T04:03:56.152Z,5.81
2023-04-30T04:04:27.726Z,5.80
2023-04-30T04:04:59.548Z,5.79
2023-04-30T04:05:31.225Z,5.78
2023-04-30T04:06:03.920Z,5.78
2023-04-30T04:06:35.518Z,5.76
2023-04-30T04:07:08.113Z,5.76
2023-04-30T04:07:39.666Z,5.75
2023-04-30T04:08:11.083Z,5.75
2023-04-30T04:08:43.702Z,5.75
2023-04-30T04:09:15.271Z,5.76
2023-04-30T04:09:46.688Z,5.76
2023-04-30T04:10:18.130Z,5.74
2023-04-30T04:10:49.534Z,5.75
2023-04-30T04:11:21.108Z,5.76
2023-04-30T04:11:52.698Z,5.76
2023-04-30T04:12:24.153Z,5.76
2023-04-30T04:12:55.709Z,5.75
2023-04-30T04:13:27.151Z,5.76
2023-04-30T04:13:58.551Z,5.77
2023-04-30T04:14:29.926Z,5.76
2023-04-30T04:15:01.428Z,5.76
2023-04-30T04:15:33.913Z,5.75
2023-04-30T04:16:05.613Z,5.75
2023-04-30T04:16:37.819Z,5.75
2023-04-30T04:17:09.388Z,5.76
2023-04-30T04:17:41.023Z,5.75
2023-04-30T04:18:12.660Z,5.75
2023-04-30T04:18:44.365Z,5.76
2023-04-30T04:19:15.774Z,5.75
2023-04-30T04:19:47.201Z,5.76
2023-04-30T04:20:18.745Z,5.77
2023-04-30T04:20:50.478Z,5.76
2023-04-30T04:21:21.916Z,5.77
2023-04-30T04:21:53.376Z,5.78
2023-04-30T04:22:24.737Z,5.77
2023-04-30T04:22:57.075Z,5.77
2023-04-30T04:23:28.811Z,5.78
2023-04-30T04:24:02.762Z,5.78
2023-04-30T04:24:34.205Z,5.78
2023-04-30T04:25:07.036Z,5.78
2023-04-30T04:25:39.345Z,5.78
2023-04-30T04:26:10.973Z,5.78
2023-04-30T04:26:42.529Z,5.79
2023-04-30T04:27:13.919Z,5.77
2023-04-30T04:27:45.837Z,5.78
2023-04-30T04:28:17.200Z,5.78
2023-04-30T04:28:48.649Z,5.77
2023-04-30T04:29:20.047Z,5.77
2023-04-30T04:29:52.154Z,5.77
2023-04-30T04:30:23.816Z,5.76
2023-04-30T04:30:55.436Z,5.75
2023-04-30T04:31:27.459Z,5.74
2023-04-30T04:32:02.653Z,5.73
2023-04-30T04:32:41.865Z,5.72
2023-04-30T04:33:13.443Z,5.72
2023-04-30T04:33:44.846Z,5.69
2023-04-30T04:34:16.716Z,5.68
2023-04-30T04:34:49.452Z,5.68
2023-04-30T04:35:21.560Z,5.66
2023-04-30T04:35:53.020Z,5.66
2023-04-30T04:36:28.671Z,5.65
2023-04-30T04:37:00.098Z,5.63
2023-04-30T04:37:31.456Z,5.62
2023-04-30T04:38:02.977Z,5.61
2023-04-30T04:38:34.384Z,5.61
2023-04-30T04:39:06.171Z,5.60
2023-04-30T04:39:37.623Z,5.61
2023-04-30T04:40:10.610Z,5.62
2023-04-30T04:40:42.538Z,5.61
2023-04-30T04:41:13.928Z,5.61
2023-04-30T04:41:45.376Z,5.61
2023-04-30T04:42:17.541Z,5.60
2023-04-30T04:42:52.022Z,5.60
2023-04-30T04:43:23.427Z,5.61
2023-04-30T04:43:54.923Z,5.61
2023-04-30T04:44:27.249Z,5.60
2023-04-30T04:44:58.619Z,5.61
2023-04-30T04:45:30.046Z,5.62
2023-04-30T04:46:01.547Z,5.61
2023-04-30T04:46:33.211Z,5.63
2023-04-30T04:47:04.588Z,5.63
2023-04-30T04:47:36.637Z,5.64
2023-04-30T04:48:08.116Z,5.66
2023-04-30T04:48:39.498Z,5.66
2023-04-30T04:49:11.046Z,5.67
2023-04-30T04:49:43.269Z,5.68
2023-04-30T04:50:14.719Z,5.67
2023-04-30T04:50:46.155Z,5.68
2023-04-30T04:51:17.611Z,5.69
2023-04-30T04:51:49.026Z,5.69
2023-04-30T04:52:20.430Z,5.70
2023-04-30T04:52:51.809Z,5.71
2023-04-30T04:53:24.213Z,5.72
2023-04-30T04:53:55.717Z,5.73
2023-04-30T04:54:27.149Z,5.74
2023-04-30T04:54:58.554Z,5.73
2023-04-30T04:55:30.032Z,5.75
2023-04-30T04:56:01.459Z,5.75
2023-04-30T04:56:32.895Z,5.75
2023-04-30T04:57:04.353Z,5.75
2023-04-30T04:57:35.903Z,5.77
2023-04-30T04:58:07.654Z,5.78
2023-04-30T04:58:39.962Z,5.80
2023-04-30T04:59:11.335Z,5.80
2023-04-30T04:59:42.736Z,5.82
2023-04-30T05:00:14.340Z,5.83
2023-04-30T05:00:45.739Z,5.84
2023-04-30T05:01:17.537Z,5.86
2023-04-30T05:01:49.096Z,5.86
2023-04-30T05:02:21.255Z,5.87
2023-04-30T05:02:53.661Z,5.88
2023-04-30T05:03:25.193Z,5.90
2023-04-30T05:03:56.756Z,5.90
2023-04-30T05:04:28.298Z,5.92
2023-04-30T05:05:00.295Z,5.93
2023-04-30T05:05:31.684Z,5.93
2023-04-30T05:06:04.018Z,5.94
2023-04-30T05:06:36.057Z,5.94
2023-04-30T05:07:08.093Z,5.95
2023-04-30T05:07:40.239Z,5.97
2023-04-30T05:08:11.858Z,5.98
2023-04-30T05:08:43.254Z,6.00
2023-04-30T05:09:15.019Z,6.00
2023-04-30T05:09:47.265Z,6.02
2023-04-30T05:10:18.643Z,6.03
2023-04-30T05:10:50.162Z,6.04
2023-04-30T05:11:22.183Z,6.05
2023-04-30T05:11:53.790Z,6.05
2023-04-30T05:12:25.349Z,6.07
2023-04-30T05:12:56.787Z,6.09
2023-04-30T05:13:28.221Z,6.09
2023-04-30T05:13:59.663Z,6.09
2023-04-30T05:14:31.003Z,6.12
2023-04-30T05:15:03.032Z,6.14
2023-04-30T05:15:34.447Z,6.16
2023-04-30T05:16:06.275Z,6.16
2023-04-30T05:16:37.749Z,6.19
2023-04-30T05:17:09.393Z,6.19
2023-04-30T05:17:40.916Z,6.21
2023-04-30T05:18:12.319Z,6.22
2023-04-30T05:18:43.677Z,6.23
2023-04-30T05:19:15.409Z,6.24
2023-04-30T05:19:48.855Z,6.24
2023-04-30T05:20:20.222Z,6.27
2023-04-30T05:20:51.631Z,6.28
2023-04-30T05:21:23.538Z,6.28
2023-04-30T05:21:54.900Z,6.27
2023-04-30T05:22:26.300Z,6.27
2023-04-30T05:22:58.008Z,6.28
2023-04-30T05:23:29.447Z,6.30
2023-04-30T05:24:00.871Z,6.31
2023-04-30T05:24:32.251Z,6.33
2023-04-30T05:25:04.222Z,6.35
2023-04-30T05:25:36.621Z,6.37
2023-04-30T05:26:08.013Z,6.38
2023-04-30T05:26:39.429Z,6.41
2023-04-30T05:27:11.023Z,6.42
2023-04-30T05:27:42.435Z,6.44
2023-04-30T05:28:13.806Z,6.45
2023-04-30T05:28:45.498Z,6.45
2023-04-30T05:29:17.031Z,6.47
2023-04-30T05:29:48.424Z,6.48
2023-04-30T05:30:19.928Z,6.50
2023-04-30T05:30:52.016Z,6.52
2023-04-30T05:31:23.724Z,6.53
2023-04-30T05:31:55.226Z,6.54
2023-04-30T05:32:27.694Z,6.55
2023-04-30T05:32:59.242Z,6.55
2023-04-30T05:33:30.737Z,6.56
2023-04-30T05:34:02.308Z,6.57
2023-04-30T05:34:33.697Z,6.57
2023-04-30T05:35:05.780Z,6.57
2023-04-30T05:35:37.184Z,6.58
2023-04-30T05:36:10.824Z,6.58
2023-04-30T05:36:44.196Z,6.59
2023-04-30T05:37:17.591Z,6.61
2023-04-30T05:37:49.036Z,6.63
2023-04-30T05:38:20.692Z,6.63
2023-04-30T05:38:52.050Z,6.64
2023-04-30T05:39:23.622Z,6.66
2023-04-30T05:39:55.559Z,6.65
2023-04-30T05:40:27.272Z,6.67
2023-04-30T05:40:58.632Z,6.68
2023-04-30T05:41:30.257Z,6.68
2023-04-30T05:42:02.475Z,6.70
2023-04-30T05:42:34.476Z,6.69
2023-04-30T05:43:06.062Z,6.70
2023-04-30T05:43:37.719Z,6.72
2023-04-30T05:44:09.135Z,6.72
2023-04-30T05:44:41.451Z,6.74
2023-04-30T05:45:14.693Z,6.73
2023-04-30T05:45:46.187Z,6.74
2023-04-30T05:46:17.646Z,6.76
2023-04-30T05:46:49.039Z,6.77
2023-04-30T05:47:20.702Z,6.77
2023-04-30T05:47:52.576Z,6.78
2023-04-30T05:48:24.096Z,6.79
2023-04-30T05:48:55.573Z,6.81
2023-04-30T05:49:27.392Z,6.81
2023-04-30T05:49:59.087Z,6.82
2023-04-30T05:50:30.559Z,6.83
2023-04-30T05:51:02.362Z,6.82
2023-04-30T05:51:33.822Z,6.83
2023-04-30T05:52:05.732Z,6.83
2023-04-30T05:52:37.145Z,6.83
2023-04-30T05:53:08.929Z,6.84
2023-04-30T05:53:40.492Z,6.84
2023-04-30T05:54:11.902Z,6.84
2023-04-30T05:54:43.870Z,6.85
2023-04-30T05:55:15.486Z,6.85
2023-04-30T05:55:46.917Z,6.86
2023-04-30T05:56:18.262Z,6.87
2023-04-30T05:56:49.664Z,6.87
2023-04-30T05:57:21.120Z,6.88
2023-04-30T05:57:52.549Z,6.90
2023-04-30T05:58:24.000Z,6.92
2023-04-30T05:58:55.401Z,6.92
2023-04-30T05:59:26.945Z,6.94
2023-04-30T05:59:58.380Z,6.96
2023-04-30T06:00:29.884Z,6.96
2023-04-30T06:01:01.816Z,6.96
2023-04-30T06:01:33.955Z,6.96
2023-04-30T06:02:05.483Z,6.97
2023-04-30T06:02:37.056Z,6.97
2023-04-30T06:03:08.480Z,7.00
2023-04-30T06:03:39.943Z,7.02
2023-04-30T06:04:11.749Z,7.04
2023-04-30T06:04:43.462Z,7.05
2023-04-30T06:05:16.287Z,7.08
2023-04-30T06:05:48.007Z,7.09
2023-04-30T06:06:19.506Z,7.11
2023-04-30T06:06:51.096Z,7.14
2023-04-30T06:07:22.912Z,7.16
2023-04-30T06:07:54.441Z,7.17
2023-04-30T06:08:25.935Z,7.20
2023-04-30T06:08:57.991Z,7.22
2023-04-30T06:09:29.377Z,7.22
2023-04-30T06:10:00.912Z,7.24
2023-04-30T06:10:32.415Z,7.25
2023-04-30T06:11:05.124Z,7.26
2023-04-30T06:11:37.363Z,7.26
2023-04-30T06:12:09.006Z,7.27
2023-04-30T06:12:40.859Z,7.26
2023-04-30T06:13:12.468Z,7.26
2023-04-30T06:13:43.932Z,7.26
2023-04-30T06:14:15.646Z,7.26
2023-04-30T06:14:48.258Z,7.28
2023-04-30T06:15:19.812Z,7.30
2023-04-30T06:15:51.368Z,7.31
2023-04-30T06:16:23.724Z,7.32
2023-04-30T06:16:55.282Z,7.34
2023-04-30T06:17:26.793Z,7.36
2023-04-30T06:17:58.658Z,7.36
2023-04-30T06:18:30.231Z,7.37
2023-04-30T06:19:01.727Z,7.38
2023-04-30T06:19:33.290Z,7.39
2023-04-30T06:20:07.166Z,7.38
2023-04-30T06:20:38.816Z,7.39
2023-04-30T06:21:10.556Z,7.39
2023-04-30T06:21:43.847Z,7.41
2023-04-30T06:22:15.307Z,7.41
2023-04-30T06:22:47.014Z,7.41
2023-04-30T06:23:18.561Z,7.40
2023-04-30T06:23:49.975Z,7.43
2023-04-30T06:24:21.361Z,7.44
2023-04-30T06:24:52.902Z,7.45
2023-04-30T06:25:24.335Z,7.47
2023-04-30T06:25:55.946Z,7.49
2023-04-30T06:26:27.724Z,7.50
2023-04-30T06:26:59.282Z,7.53
2023-04-30T06:27:32.494Z,7.54
2023-04-30T06:28:04.197Z,7.57
2023-04-30T06:28:35.724Z,7.59
2023-04-30T06:29:07.054Z,7.61
2023-04-30T06:29:38.413Z,7.65
2023-04-30T06:30:10.328Z,7.66
2023-04-30T06:30:41.863Z,7.68
2023-04-30T06:31:13.540Z,7.70
2023-04-30T06:31:45.044Z,7.73
2023-04-30T06:32:16.878Z,7.75
2023-04-30T06:32:48.460Z,7.76
2023-04-30T06:33:19.869Z,7.77
2023-04-30T06:33:51.323Z,7.79
2023-04-30T06:34:22.750Z,7.80
2023-04-30T06:34:55.679Z,7.82
2023-04-30T06:35:27.217Z,7.84
2023-04-30T06:35:58.733Z,7.87
2023-04-30T06:36:30.107Z,7.88
2023-04-30T06:37:01.501Z,7.89
2023-04-30T06:37:37.760Z,7.91
2023-04-30T06:38:09.430Z,7.93
2023-04-30T06:38:41.577Z,7.96
2023-04-30T06:39:16.013Z,7.98
2023-04-30T06:39:47.435Z,8.01
2023-04-30T06:40:19.080Z,8.02
2023-04-30T06:40:50.491Z,8.04
2023-04-30T06:41:22.211Z,8.05
2023-04-30T06:41:53.578Z,8.07
2023-04-30T06:42:24.968Z,8.09
2023-04-30T06:42:56.609Z,8.11
2023-04-30T06:43:27.970Z,8.13
2023-04-30T06:43:59.450Z,8.15
2023-04-30T06:44:30.921Z,8.16
2023-04-30T06:45:02.741Z,8.17
2023-04-30T06:45:34.142Z,8.19
2023-04-30T06:46:06.736Z,8.22
2023-04-30T06:46:38.247Z,8.23
2023-04-30T06:47:09.688Z,8.23
2023-04-30T06:47:42.844Z,8.25
2023-04-30T06:48:14.383Z,8.26
2023-04-30T06:48:45.999Z,8.29
2023-04-30T06:49:17.462Z,8.31
2023-04-30T06:49:49.336Z,8.34
2023-04-30T06:50:21.845Z,8.36
2023-04-30T06:50:53.286Z,8.35
2023-04-30T06:51:24.671Z,8.36
2023-04-30T06:51:58.328Z,8.37
2023-04-30T06:52:30.637Z,8.40
2023-04-30T06:53:02.901Z,8.42
2023-04-30T06:53:34.293Z,8.45
2023-04-30T06:54:06.142Z,8.47
2023-04-30T06:54:37.596Z,8.48
2023-04-30T06:55:09.452Z,8.51
2023-04-30T06:55:42.440Z,8.54
2023-04-30T06:56:13.824Z,8.55
2023-04-30T06:56:45.560Z,8.58
2023-04-30T06:57:16.941Z,8.60
2023-04-30T06:57:48.537Z,8.61
2023-04-30T06:58:19.974Z,8.61
2023-04-30T06:58:51.594Z,8.63
2023-04-30T06:59:23.018Z,8.63
2023-04-30T06:59:55.838Z,8.65
2023-04-30T07:00:27.743Z,8.67
2023-04-30T07:00:59.151Z,8.67
2023-04-30T07:01:30.738Z,8.70
2023-04-30T07:02:02.203Z,8.71
2023-04-30T07:02:33.816Z,8.72
2023-04-30T07:03:05.459Z,8.74
2023-04-30T07:03:37.279Z,8.76
2023-04-30T07:04:08.721Z,8.79
2023-04-30T07:04:40.127Z,8.82
2023-04-30T07:05:12.130Z,8.85
2023-04-30T07:05:44.178Z,8.87
2023-04-30T07:06:15.956Z,8.88
2023-04-30T07:06:47.413Z,8.91
2023-04-30T07:07:18.903Z,8.92
2023-04-30T07:07:50.604Z,8.95
2023-04-30T07:08:22.421Z,8.98
2023-04-30T07:08:53.837Z,9.01
2023-04-30T07:09:25.326Z,9.03
2023-04-30T07:09:57.096Z,9.05
2023-04-30T07:10:29.095Z,9.07
2023-04-30T07:11:00.579Z,9.08
2023-04-30T07:11:32.172Z,9.09
2023-04-30T07:12:03.788Z,9.10
2023-04-30T07:12:35.383Z,9.12
2023-04-30T07:13:08.238Z,9.14
2023-04-30T07:13:39.740Z,9.17
2023-04-30T07:14:11.393Z,9.19
2023-04-30T07:14:44.496Z,9.22
2023-04-30T07:15:16.208Z,9.22
2023-04-30T07:15:47.668Z,9.25
2023-04-30T07:16:19.274Z,9.26
2023-04-30T07:16:51.008Z,9.28
2023-04-30T07:17:22.650Z,9.32
2023-04-30T07:17:54.403Z,9.34